createdAt,value
2018-06-30T00:02:01.837Z,25.00
2018-06-30T00:04:29.277Z,24.90
2018-06-30T00:06:56.619Z,24.90
2018-06-30T00:09:23.983Z,24.90
2018-06-30T00:11:51.308Z,24.90
2018-06-30T00:14:18.613Z,24.80
2018-06-30T00:16:46.052Z,24.80
2018-06-30T00:19:13.346Z,24.80
2018-06-30T00:21:40.664Z,24.70
2018-06-30T00:24:08.585Z,24.70
2018-06-30T00:26:35.926Z,24.70
2018-06-30T00:29:03.387Z,24.70
2018-06-30T00:31:30.719Z,24.60
2018-06-30T00:33:58.047Z,24.70
2018-06-30T00:36:25.397Z,24.60
2018-06-30T00:38:52.751Z,24.60
2018-06-30T00:41:20.057Z,24.50
2018-06-30T00:43:47.374Z,24.30
2018-06-30T00:46:14.665Z,24.20
2018-06-30T00:51:09.233Z,24.10
2018-06-30T00:53:36.565Z,24.10
2018-06-30T00:58:31.182Z,24.00
2018-06-30T01:00:58.476Z,23.90
2018-06-30T01:03:25.787Z,23.80
2018-06-30T01:05:53.131Z,23.70
2018-06-30T01:08:20.489Z,23.60
2018-06-30T01:10:47.829Z,23.60
2018-06-30T01:13:15.193Z,23.50
2018-06-30T01:15:42.500Z,23.50
2018-06-30T01:18:09.829Z,23.50
2018-06-30T01:20:37.155Z,23.50
2018-06-30T01:23:05.019Z,23.40
2018-06-30T01:25:32.342Z,23.40
2018-06-30T01:27:59.754Z,23.20
2018-06-30T01:30:27.084Z,23.10
2018-06-30T01:32:54.389Z,23.10
2018-06-30T01:35:21.798Z,22.90
2018-06-30T01:37:49.148Z,22.70
2018-06-30T01:40:16.453Z,22.70
2018-06-30T01:42:43.858Z,22.70
2018-06-30T01:47:38.354Z,22.70
2018-06-30T01:52:32.922Z,22.50
2018-06-30T01:55:00.292Z,22.50
2018-06-30T01:57:27.599Z,22.60
2018-06-30T01:59:54.932Z,22.60
2018-06-30T02:02:22.250Z,22.50
2018-06-30T02:04:49.602Z,22.40
2018-06-30T02:07:16.914Z,22.20
2018-06-30T02:09:44.216Z,22.20
2018-06-30T02:12:11.518Z,22.30
2018-06-30T02:14:38.890Z,22.30
2018-06-30T02:17:06.207Z,22.20
2018-06-30T02:19:33.545Z,22.20
2018-06-30T02:22:00.887Z,22.30
2018-06-30T02:24:28.223Z,22.30
2018-06-30T02:26:55.566Z,22.30
2018-06-30T02:29:22.948Z,22.30
2018-06-30T02:31:50.391Z,22.30
2018-06-30T02:34:17.742Z,22.30
2018-06-30T02:36:45.071Z,22.40
2018-06-30T02:39:12.469Z,22.40
2018-06-30T02:41:39.703Z,22.40
2018-06-30T02:44:07.038Z,22.40
2018-06-30T02:46:34.329Z,22.40
2018-06-30T02:49:01.648Z,22.50
2018-06-30T02:51:28.964Z,22.50
2018-06-30T02:53:56.292Z,22.40
2018-06-30T02:56:23.662Z,22.30
2018-06-30T02:58:50.984Z,22.30
2018-06-30T03:01:18.311Z,22.20
2018-06-30T03:06:13.078Z,22.00
2018-06-30T03:08:40.396Z,22.10
2018-06-30T03:11:07.733Z,22.20
2018-06-30T03:13:35.038Z,22.20
2018-06-30T03:16:02.360Z,22.10
2018-06-30T03:18:29.695Z,22.00
2018-06-30T03:20:56.995Z,22.10
2018-06-30T03:23:24.408Z,22.00
2018-06-30T03:25:51.752Z,21.90
2018-06-30T03:28:19.086Z,21.90
2018-06-30T03:30:46.457Z,21.80
2018-06-30T03:33:13.770Z,21.80
2018-06-30T03:35:41.120Z,21.70
2018-06-30T03:38:08.459Z,21.70
2018-06-30T03:40:35.836Z,21.60
2018-06-30T03:43:03.152Z,21.60
2018-06-30T03:45:30.571Z,21.70
2018-06-30T03:47:57.909Z,21.70
2018-06-30T03:55:19.728Z,21.80
2018-06-30T03:57:47.131Z,21.80
2018-06-30T04:00:14.458Z,21.80
2018-06-30T04:02:42.572Z,21.90
2018-06-30T04:05:09.880Z,21.90
2018-06-30T04:07:37.205Z,21.90
2018-06-30T04:10:04.568Z,22.00
2018-06-30T04:12:31.906Z,21.90
2018-06-30T04:17:26.476Z,22.00
2018-06-30T04:19:53.892Z,22.00
2018-06-30T04:22:21.214Z,22.00
2018-06-30T04:24:48.570Z,22.00
2018-06-30T04:27:15.896Z,21.90
2018-06-30T04:29:43.192Z,21.90
2018-06-30T04:34:37.700Z,22.10
2018-06-30T04:37:05.062Z,22.10
2018-06-30T04:39:32.400Z,22.20
2018-06-30T04:41:59.754Z,22.30
2018-06-30T04:44:27.133Z,22.30
2018-06-30T04:46:54.492Z,22.40
2018-06-30T04:49:21.858Z,22.50
2018-06-30T04:51:49.166Z,22.50
2018-06-30T04:54:16.495Z,22.50
2018-06-30T04:56:43.880Z,22.50
2018-06-30T04:59:11.192Z,22.60
2018-06-30T05:01:38.534Z,22.60
2018-06-30T05:04:05.904Z,22.70
2018-06-30T05:06:33.225Z,22.80
2018-06-30T05:09:00.547Z,22.90
2018-06-30T05:11:27.859Z,22.90
2018-06-30T05:13:55.185Z,23.00
2018-06-30T05:16:22.551Z,23.10
2018-06-30T05:18:49.896Z,23.10
2018-06-30T05:21:17.203Z,23.10
2018-06-30T05:23:44.531Z,23.10
2018-06-30T05:26:11.867Z,23.20
2018-06-30T05:28:39.190Z,23.20
2018-06-30T05:31:06.512Z,23.30
2018-06-30T05:33:33.951Z,23.30
2018-06-30T05:36:01.213Z,23.50
2018-06-30T05:38:28.552Z,23.60
2018-06-30T05:40:55.891Z,23.70
2018-06-30T05:43:23.293Z,23.80
2018-06-30T05:45:50.603Z,23.80
2018-06-30T05:48:17.974Z,23.90
2018-06-30T05:53:12.615Z,24.00
2018-06-30T05:55:39.941Z,24.00
2018-06-30T05:58:07.555Z,24.00
2018-06-30T06:00:34.861Z,24.00
2018-06-30T06:03:02.224Z,24.10
2018-06-30T06:05:29.541Z,24.10
2018-06-30T06:07:56.908Z,24.00
2018-06-30T06:10:24.227Z,24.00
2018-06-30T06:12:51.579Z,24.10
2018-06-30T06:15:18.945Z,24.20
2018-06-30T06:17:46.223Z,24.30
2018-06-30T06:20:13.587Z,24.20
2018-06-30T06:22:40.898Z,24.30
2018-06-30T06:25:08.329Z,24.20
2018-06-30T06:27:35.722Z,24.20
2018-06-30T06:32:31.128Z,24.40
2018-06-30T06:34:58.404Z,24.30
2018-06-30T06:37:25.748Z,24.50
2018-06-30T06:39:53.773Z,24.60
2018-06-30T06:42:21.128Z,24.70
2018-06-30T06:44:48.448Z,24.80
2018-06-30T06:47:15.867Z,24.80
2018-06-30T06:49:43.237Z,24.90
2018-06-30T06:52:10.551Z,24.90
2018-06-30T06:54:37.904Z,25.10
2018-06-30T06:57:05.211Z,25.10
2018-06-30T06:59:32.547Z,24.80
2018-06-30T07:01:59.862Z,24.70
2018-06-30T07:04:27.289Z,24.90
2018-06-30T12:06:44.277Z,27.90
2018-06-30T12:09:11.673Z,28.20
2018-06-30T12:11:39.011Z,28.60
2018-06-30T12:14:06.324Z,28.90
2018-06-30T12:16:33.673Z,29.10
2018-06-30T12:19:01.023Z,29.30
2018-06-30T12:21:28.526Z,29.50
2018-06-30T12:23:55.892Z,29.60
2018-06-30T12:26:23.376Z,29.80
2018-06-30T12:28:50.855Z,29.80
2018-06-30T12:31:18.213Z,29.70
2018-06-30T12:33:45.545Z,29.70
2018-06-30T12:36:12.892Z,29.90
2018-06-30T12:38:40.214Z,29.90
2018-06-30T12:41:07.571Z,29.60
2018-06-30T12:43:34.868Z,29.50
2018-06-30T12:46:02.204Z,29.60
2018-06-30T12:48:29.660Z,29.70
2018-06-30T12:50:57.250Z,29.80
2018-06-30T12:53:24.643Z,29.80
2018-06-30T12:55:52.073Z,29.70
2018-06-30T12:58:19.404Z,29.80
2018-06-30T13:00:46.828Z,29.80
2018-06-30T13:03:14.161Z,29.90
2018-06-30T13:05:41.474Z,29.80
2018-06-30T13:08:08.813Z,29.60
2018-06-30T13:10:36.202Z,29.50
2018-06-30T13:13:03.605Z,29.60
2018-06-30T13:15:31.511Z,29.70
2018-06-30T13:17:58.856Z,29.70
2018-06-30T13:20:26.314Z,29.80
2018-06-30T13:22:53.777Z,29.80
2018-06-30T13:25:21.696Z,29.80
2018-06-30T13:27:49.039Z,29.80
2018-06-30T13:30:16.379Z,29.70
2018-06-30T13:32:43.706Z,29.70
2018-06-30T13:35:11.017Z,29.80
2018-06-30T13:37:38.303Z,29.80
2018-06-30T13:40:05.722Z,29.80
2018-06-30T13:42:33.241Z,30.00
2018-06-30T13:45:00.647Z,30.20
2018-06-30T13:47:28.281Z,30.10
2018-06-30T13:49:55.799Z,30.10
2018-06-30T13:52:23.184Z,30.00
2018-06-30T13:54:50.588Z,30.10
2018-06-30T13:57:17.912Z,30.20
2018-06-30T13:59:45.292Z,30.00
2018-06-30T14:02:12.654Z,30.00
2018-06-30T14:04:39.986Z,30.00
2018-06-30T14:07:07.346Z,30.10
2018-06-30T14:09:34.648Z,30.30
2018-06-30T14:14:29.264Z,30.20
2018-06-30T14:16:56.772Z,30.40
2018-06-30T14:19:24.153Z,30.50
2018-06-30T14:21:51.541Z,30.70
2018-06-30T14:24:18.864Z,30.60
2018-06-30T14:26:46.191Z,30.70
2018-06-30T14:29:13.516Z,30.70
2018-06-30T14:31:40.877Z,30.60
2018-06-30T14:34:08.274Z,30.50
2018-06-30T14:36:35.611Z,30.60
2018-06-30T14:39:05.480Z,30.70
2018-06-30T14:41:32.813Z,30.80
2018-06-30T14:44:00.185Z,30.80
2018-06-30T14:46:27.700Z,30.60
2018-06-30T14:48:55.129Z,30.60
2018-06-30T14:51:22.528Z,30.50
2018-06-30T14:53:49.925Z,30.70
2018-06-30T14:56:17.299Z,30.50
2018-06-30T14:58:44.619Z,30.50
2018-06-30T15:01:11.970Z,30.60
2018-06-30T15:03:39.294Z,30.60
2018-06-30T15:06:06.653Z,30.60
2018-06-30T15:08:33.968Z,30.70
2018-06-30T15:11:01.291Z,30.80
2018-06-30T15:13:28.634Z,30.90
2018-06-30T15:15:56.106Z,30.90
2018-06-30T15:18:23.450Z,31.00
2018-06-30T15:20:50.816Z,30.90
2018-06-30T15:23:18.156Z,31.00
2018-06-30T15:25:45.493Z,31.20
2018-06-30T15:28:12.808Z,31.20
2018-06-30T15:30:40.152Z,31.30
2018-06-30T15:33:07.544Z,31.40
2018-06-30T15:35:34.882Z,31.30
2018-06-30T15:38:02.190Z,31.10
2018-06-30T15:40:29.581Z,30.70
2018-06-30T15:42:56.958Z,30.70
2018-06-30T15:45:24.342Z,30.60
2018-06-30T15:47:51.863Z,31.00
2018-06-30T15:52:46.380Z,31.00
2018-06-30T15:55:13.726Z,31.10
2018-06-30T15:57:41.058Z,31.10
2018-06-30T16:00:08.449Z,31.00
2018-06-30T16:02:35.774Z,31.00
2018-06-30T16:05:03.164Z,30.80
2018-06-30T16:07:30.506Z,30.80
2018-06-30T16:09:57.876Z,30.90
2018-06-30T16:12:25.333Z,30.90
2018-06-30T16:14:52.688Z,30.60
2018-06-30T16:17:20.051Z,30.50
2018-06-30T16:19:47.396Z,30.40
2018-06-30T16:22:14.757Z,30.70
2018-06-30T16:24:42.103Z,31.00
2018-06-30T16:27:09.396Z,31.40
2018-06-30T16:29:36.749Z,31.80
2018-06-30T16:32:04.081Z,32.40
2018-06-30T16:34:31.405Z,33.10
2018-06-30T16:36:58.795Z,33.80
2018-06-30T16:39:26.237Z,34.40
2018-06-30T16:41:53.591Z,35.10
2018-06-30T16:44:20.936Z,36.00
2018-06-30T16:46:48.268Z,37.20
2018-06-30T16:49:15.647Z,36.90
2018-06-30T16:51:42.998Z,36.10
2018-06-30T16:54:10.315Z,36.10
2018-06-30T16:56:37.648Z,36.40
2018-06-30T16:59:04.975Z,37.00
2018-06-30T17:01:32.301Z,36.80
2018-06-30T17:03:59.640Z,36.80
2018-06-30T17:06:27.176Z,36.30
2018-06-30T17:08:54.543Z,35.90
2018-06-30T17:11:22.230Z,36.00
2018-06-30T17:13:49.535Z,35.40
2018-06-30T17:16:16.912Z,35.80
2018-06-30T17:18:44.366Z,36.30
2018-06-30T17:21:11.731Z,36.70
2018-06-30T17:23:39.100Z,37.30
2018-06-30T17:26:06.469Z,37.30
2018-06-30T17:28:33.753Z,37.20
2018-06-30T17:31:01.086Z,37.20
2018-06-30T17:33:28.421Z,37.00
2018-06-30T17:35:55.753Z,36.80
2018-06-30T17:38:23.175Z,36.70
2018-06-30T17:40:50.533Z,35.50
2018-06-30T17:45:45.040Z,35.70
2018-06-30T17:48:12.388Z,35.90
2018-06-30T17:50:39.743Z,36.00
2018-06-30T17:53:07.095Z,35.80
2018-06-30T17:55:34.457Z,36.10
2018-06-30T17:58:01.832Z,35.80
2018-06-30T18:00:29.173Z,35.10
2018-06-30T18:02:56.578Z,35.00
2018-06-30T18:05:24.047Z,35.00
2018-06-30T18:07:51.425Z,34.80
2018-06-30T18:10:18.978Z,34.00
2018-06-30T18:12:46.120Z,32.50
2018-06-30T18:15:13.461Z,31.40
2018-06-30T18:17:40.813Z,30.40
2018-06-30T18:20:08.128Z,29.40
2018-06-30T18:22:35.481Z,29.20
2018-06-30T18:25:02.855Z,29.20
2018-06-30T18:27:30.188Z,29.10
2018-06-30T18:29:57.549Z,29.00
2018-06-30T18:32:24.935Z,28.70
2018-06-30T18:34:52.516Z,28.60
2018-06-30T18:37:19.870Z,28.40
2018-06-30T18:39:47.253Z,27.90
2018-06-30T18:42:14.678Z,27.80
2018-06-30T18:44:41.961Z,27.60
2018-06-30T18:47:09.280Z,27.50
2018-06-30T18:49:36.647Z,27.50
2018-06-30T18:52:04.040Z,27.40
2018-06-30T18:54:31.410Z,27.30
2018-06-30T18:56:58.772Z,27.30
2018-06-30T18:59:26.156Z,27.20
2018-06-30T19:01:53.610Z,27.30
2018-06-30T19:04:21.030Z,27.20
2018-06-30T19:06:48.413Z,27.20
2018-06-30T19:09:15.794Z,27.10
2018-06-30T19:11:43.150Z,27.10
2018-06-30T19:14:10.516Z,27.00
2018-06-30T19:16:37.845Z,26.80
2018-06-30T19:19:05.214Z,26.50
2018-06-30T19:21:32.616Z,26.60
2018-06-30T19:23:59.953Z,26.70
2018-06-30T19:26:27.297Z,26.40
2018-06-30T19:28:54.795Z,26.30
2018-06-30T19:31:22.171Z,26.40
2018-06-30T19:33:49.562Z,26.30
2018-06-30T19:36:16.904Z,26.20
2018-06-30T19:38:44.247Z,26.10
2018-06-30T19:41:11.648Z,25.90
2018-06-30T19:43:39.001Z,25.70
2018-06-30T19:46:06.370Z,25.60
2018-06-30T19:48:33.659Z,25.40
2018-06-30T19:51:00.985Z,25.30
2018-06-30T19:53:28.326Z,25.30
2018-06-30T19:55:55.688Z,25.20
2018-06-30T19:58:23.055Z,25.20
2018-06-30T20:00:50.424Z,25.10
2018-06-30T20:03:17.747Z,25.00
2018-06-30T20:05:45.105Z,25.00
2018-06-30T20:08:12.460Z,24.90
2018-06-30T20:10:39.779Z,24.90
2018-06-30T20:13:07.188Z,24.90
2018-06-30T20:15:34.531Z,24.80
2018-06-30T20:18:01.856Z,24.60
2018-06-30T20:20:29.279Z,24.60
2018-06-30T20:22:56.695Z,24.40
2018-06-30T20:25:24.042Z,24.40
2018-06-30T20:27:51.400Z,24.30
2018-06-30T20:30:18.736Z,24.20
2018-06-30T20:32:46.124Z,24.20
2018-06-30T20:35:13.461Z,24.20
2018-06-30T20:37:40.802Z,24.10
2018-06-30T20:42:35.333Z,23.90
2018-06-30T20:45:02.909Z,23.80
2018-06-30T20:47:30.316Z,23.90
2018-06-30T20:49:57.787Z,23.80
2018-06-30T20:52:25.107Z,23.70
2018-06-30T20:54:52.445Z,23.70
2018-06-30T20:57:19.762Z,23.60
2018-06-30T20:59:47.115Z,23.70
2018-06-30T21:02:14.460Z,23.60
2018-06-30T21:04:41.818Z,23.60
2018-06-30T21:07:09.169Z,23.70
2018-06-30T21:09:36.466Z,23.70
2018-06-30T21:12:03.850Z,23.60
2018-06-30T21:14:31.190Z,23.60
2018-06-30T21:16:58.840Z,23.50
2018-06-30T21:19:26.705Z,23.40
2018-06-30T21:21:54.072Z,23.30
2018-06-30T21:24:21.415Z,23.30
2018-06-30T21:29:15.944Z,23.20
2018-06-30T21:31:43.268Z,23.20
2018-06-30T21:34:10.615Z,23.20
2018-06-30T21:36:38.050Z,23.10
2018-06-30T21:39:07.829Z,23.00
2018-06-30T21:41:35.455Z,22.90
2018-06-30T21:44:02.862Z,22.90
2018-06-30T21:46:30.435Z,22.80
2018-06-30T21:48:58.205Z,22.90
2018-06-30T21:51:26.083Z,22.90
2018-06-30T21:53:53.644Z,22.80
2018-06-30T21:56:20.994Z,22.70
2018-06-30T21:58:48.358Z,22.60
2018-06-30T22:01:15.676Z,22.70
2018-06-30T22:03:43.058Z,22.70
2018-06-30T22:06:10.506Z,22.60
2018-06-30T22:08:37.827Z,22.40
2018-06-30T22:11:05.373Z,22.30
2018-06-30T22:13:32.531Z,22.20
2018-06-30T22:15:59.908Z,22.20
2018-06-30T22:18:27.369Z,22.20
2018-06-30T22:20:54.643Z,22.10
2018-06-30T22:23:21.952Z,22.00
2018-06-30T22:25:49.292Z,22.00
2018-06-30T22:28:16.620Z,21.90
2018-06-30T22:30:43.944Z,21.90
2018-06-30T22:33:11.361Z,22.00
2018-06-30T22:35:38.713Z,21.90
2018-06-30T22:38:06.170Z,21.80
2018-06-30T22:40:33.503Z,21.70
2018-06-30T22:43:00.876Z,21.70
2018-06-30T22:45:28.228Z,21.70
2018-06-30T22:47:55.533Z,21.50
2018-06-30T22:50:22.871Z,21.40
2018-06-30T22:52:50.217Z,21.30
2018-06-30T22:55:17.580Z,21.30
2018-06-30T22:57:44.905Z,21.30
2018-06-30T23:00:15.004Z,21.40
2018-06-30T23:02:42.370Z,21.40
2018-06-30T23:05:09.708Z,21.50
2018-06-30T23:07:37.026Z,21.40
2018-06-30T23:10:04.391Z,21.40
2018-06-30T23:12:31.716Z,21.40
2018-06-30T23:14:59.181Z,21.30
2018-06-30T23:17:26.527Z,21.30
2018-06-30T23:19:53.856Z,21.40
2018-06-30T23:23:24.733Z,21.40
2018-06-30T23:25:52.069Z,21.30
2018-06-30T23:28:19.440Z,21.10
2018-06-30T23:30:46.755Z,21.00
2018-06-30T23:33:14.085Z,20.90
2018-06-30T23:35:41.471Z,21.00
2018-06-30T23:38:08.868Z,21.10
2018-06-30T23:40:36.124Z,21.10
2018-06-30T23:43:03.659Z,21.10
2018-06-30T23:45:30.985Z,21.10
2018-06-30T23:47:58.299Z,21.10
2018-06-30T23:50:25.654Z,21.10
2018-06-30T23:52:52.999Z,20.90
2018-06-30T23:55:20.314Z,20.90
2018-06-30T23:57:47.654Z,20.70
